createdAt,value
2023-01-23T00:01:04.794Z,8.72
2023-01-23T00:06:03.385Z,8.53
2023-01-23T00:11:05.130Z,8.56
2023-01-23T00:16:04.900Z,8.81
2023-01-23T00:21:04.819Z,8.73
2023-01-23T00:26:07.556Z,8.80
2023-01-23T00:31:06.369Z,8.75
2023-01-23T00:36:04.821Z,8.72
2023-01-23T00:41:02.945Z,8.83
2023-01-23T00:46:02.242Z,8.74
2023-01-23T00:51:00.102Z,8.71
2023-01-23T00:55:58.474Z,8.83
2023-01-23T01:00:57.209Z,8.70
2023-01-23T01:05:56.741Z,8.57
2023-01-23T01:10:54.570Z,8.78
2023-01-23T01:15:52.964Z,8.73
2023-01-23T01:20:51.586Z,8.43
2023-01-23T01:25:50.856Z,8.60
2023-01-23T01:30:48.782Z,8.47
2023-01-23T01:35:46.626Z,8.26
2023-01-23T01:40:44.439Z,8.19
2023-01-23T01:46:12.378Z,8.11
2023-01-23T01:51:14.488Z,7.96
2023-01-23T01:56:14.355Z,7.94
2023-01-23T02:01:12.498Z,7.87
2023-01-23T02:06:10.320Z,7.80
2023-01-23T02:11:09.734Z,7.86
2023-01-23T02:16:09.139Z,8.05
2023-01-23T02:21:09.163Z,7.88
2023-01-23T02:26:10.526Z,7.75
2023-01-23T02:31:09.153Z,7.99
2023-01-23T02:36:09.095Z,8.11
2023-01-23T02:41:10.567Z,8.13
2023-01-23T02:46:10.726Z,7.89
2023-01-23T02:51:08.877Z,7.80
2023-01-23T02:56:08.580Z,7.80
2023-01-23T03:01:06.526Z,7.93
2023-01-23T03:06:06.047Z,8.05
2023-01-23T03:11:04.828Z,7.98
2023-01-23T03:16:04.085Z,8.07
2023-01-23T03:21:03.094Z,7.97
2023-01-23T03:26:00.949Z,7.57
2023-01-23T03:31:01.717Z,7.43
2023-01-23T03:36:02.213Z,7.14
2023-01-23T03:41:26.263Z,7.33
2023-01-23T03:46:28.221Z,6.97
2023-01-23T03:51:27.529Z,7.13
2023-01-23T03:56:25.786Z,6.96
2023-01-23T04:01:23.894Z,7.17
2023-01-23T04:06:22.930Z,6.65
2023-01-23T04:11:23.957Z,6.62
2023-01-23T04:16:22.936Z,6.53
2023-01-23T04:21:21.123Z,6.68
2023-01-23T04:26:19.357Z,6.55
2023-01-23T04:31:18.831Z,6.34
2023-01-23T04:36:16.845Z,6.25
2023-01-23T04:41:19.341Z,6.20
2023-01-23T04:46:19.697Z,6.01
2023-01-23T04:51:28.559Z,6.07
2023-01-23T04:56:26.948Z,5.93
2023-01-23T05:01:27.840Z,6.07
2023-01-23T05:06:30.408Z,5.86
2023-01-23T05:11:29.930Z,6.05
2023-01-23T05:16:30.289Z,5.83
2023-01-23T05:22:00.178Z,5.91
2023-01-23T05:26:58.277Z,5.79
2023-01-23T05:32:01.391Z,5.84
2023-01-23T05:37:08.305Z,5.80
2023-01-23T05:42:09.890Z,6.09
2023-01-23T05:47:28.465Z,5.77
2023-01-23T05:52:27.950Z,5.98
2023-01-23T05:57:25.760Z,5.94
2023-01-23T06:02:23.647Z,5.79
2023-01-23T06:07:55.153Z,5.69
2023-01-23T06:12:58.616Z,5.72
2023-01-23T06:17:56.719Z,5.75
2023-01-23T06:22:58.011Z,5.68
2023-01-23T06:27:57.792Z,5.61
2023-01-23T06:32:58.507Z,5.76
2023-01-23T06:38:12.474Z,5.67
2023-01-23T06:43:10.442Z,5.79
2023-01-23T06:48:08.376Z,5.53
2023-01-23T06:53:06.563Z,5.41
2023-01-23T06:58:06.009Z,5.27
2023-01-23T07:03:04.749Z,5.36
2023-01-23T07:08:04.928Z,5.28
2023-01-23T07:13:03.430Z,5.21
2023-01-23T07:18:02.813Z,5.30
2023-01-23T07:23:03.467Z,5.34
2023-01-23T07:28:02.569Z,5.33
2023-01-23T07:33:00.504Z,5.18
2023-01-23T07:37:59.832Z,5.18
2023-01-23T07:42:57.968Z,5.05
2023-01-23T07:47:55.878Z,5.28
2023-01-23T07:52:56.132Z,5.13
2023-01-23T07:57:56.501Z,5.18
2023-01-23T08:02:54.324Z,5.08
2023-01-23T08:08:00.700Z,5.09
2023-01-23T08:13:06.700Z,5.50
2023-01-23T08:18:04.611Z,5.21
2023-01-23T08:23:02.679Z,5.55
2023-01-23T08:28:00.631Z,5.78
2023-01-23T08:33:00.578Z,5.50
2023-01-23T08:37:58.487Z,5.23
2023-01-23T08:42:57.461Z,5.36
2023-01-23T08:47:55.377Z,5.44
2023-01-23T08:52:55.748Z,5.17
2023-01-23T08:57:53.594Z,5.21
2023-01-23T09:02:51.807Z,5.32
2023-01-23T09:07:49.613Z,5.53
2023-01-23T09:12:49.087Z,5.34
2023-01-23T09:17:46.992Z,5.44
2023-01-23T09:22:44.798Z,5.54
2023-01-23T09:27:42.586Z,5.66
2023-01-23T09:32:41.751Z,5.92
2023-01-23T09:37:59.744Z,5.84
2023-01-23T09:42:59.985Z,5.70
2023-01-23T09:48:05.936Z,5.69
2023-01-23T09:53:07.095Z,5.58
2023-01-23T09:58:05.933Z,5.80
2023-01-23T10:03:11.639Z,5.71
2023-01-23T10:08:14.208Z,5.71
2023-01-23T10:13:16.639Z,5.58
2023-01-23T10:18:20.491Z,5.61
2023-01-23T10:23:37.899Z,5.49
2023-01-23T10:28:38.396Z,5.22
2023-01-23T10:33:41.102Z,5.45
2023-01-23T10:38:41.117Z,5.67
2023-01-23T10:43:39.212Z,5.36
2023-01-23T10:48:43.243Z,5.17
2023-01-23T10:53:41.060Z,5.24
2023-01-23T10:58:41.053Z,5.50
2023-01-23T11:03:39.886Z,5.24
2023-01-23T11:08:40.505Z,5.17
2023-01-23T11:13:38.292Z,5.32
2023-01-23T11:18:42.698Z,5.41
2023-01-23T11:23:41.928Z,5.02
2023-01-23T11:28:47.814Z,4.84
2023-01-23T11:33:53.130Z,5.19
2023-01-23T11:38:54.731Z,4.97
2023-01-23T11:49:49.327Z,5.09
2023-01-23T11:54:57.922Z,4.91
2023-01-23T12:00:12.109Z,4.69
2023-01-23T12:05:16.849Z,4.68
2023-01-23T12:10:22.233Z,4.51
2023-01-23T12:15:25.821Z,4.58
2023-01-23T12:20:32.417Z,4.62
2023-01-23T12:25:34.990Z,4.90
2023-01-23T12:30:48.086Z,4.75
2023-01-23T12:35:49.425Z,4.62
2023-01-23T12:40:49.838Z,4.63
2023-01-23T12:45:50.459Z,4.54
2023-01-23T12:50:51.233Z,4.23
2023-01-23T12:55:56.918Z,4.41
2023-01-23T13:01:00.391Z,4.66
2023-01-23T13:06:06.447Z,4.42
2023-01-23T13:11:26.322Z,4.39
2023-01-23T13:16:28.388Z,4.31
2023-01-23T13:21:44.033Z,4.22
2023-01-23T13:26:43.229Z,4.15
2023-01-23T13:31:45.259Z,4.15
2023-01-23T13:36:43.797Z,4.16
2023-01-23T13:41:43.076Z,4.30
2023-01-23T14:24:03.955Z,3.78
2023-01-23T14:29:04.287Z,3.64
2023-01-23T14:34:09.873Z,3.54
2023-01-23T14:39:08.088Z,3.49
2023-01-23T14:44:08.778Z,3.50
2023-01-23T14:49:08.147Z,3.48
2023-01-23T14:54:10.426Z,3.21
2023-01-23T14:59:24.585Z,3.33
2023-01-23T15:04:23.555Z,3.23
2023-01-23T15:09:23.324Z,3.21
2023-01-23T15:14:27.564Z,3.17
2023-01-23T15:19:26.323Z,3.38
2023-01-23T15:24:28.532Z,3.46
2023-01-23T15:29:27.845Z,3.26
2023-01-23T15:34:26.988Z,3.08
2023-01-23T15:39:27.351Z,3.09
2023-01-23T15:44:27.932Z,3.39
2023-01-23T15:49:27.974Z,3.01
2023-01-23T15:54:29.113Z,3.01
2023-01-23T15:59:28.130Z,3.03
2023-01-23T16:04:26.025Z,3.08
2023-01-23T16:09:30.656Z,2.95
2023-01-23T16:14:28.790Z,2.87
2023-01-23T16:19:26.587Z,2.78
2023-01-23T16:24:26.266Z,3.00
2023-01-23T16:29:27.898Z,3.15
2023-01-23T16:34:26.037Z,2.89
2023-01-23T16:39:26.612Z,2.84
2023-01-23T16:44:24.971Z,2.80
2023-01-23T16:49:22.798Z,2.60
2023-01-23T16:54:21.580Z,2.81
2023-01-23T16:59:23.110Z,2.86
2023-01-23T17:04:21.811Z,3.21
2023-01-23T17:09:19.749Z,3.07
2023-01-23T17:14:19.037Z,2.73
2023-01-23T17:19:21.706Z,3.04
2023-01-23T17:24:19.649Z,3.35
2023-01-23T17:29:17.516Z,2.96
2023-01-23T17:34:21.420Z,3.13
2023-01-23T17:39:20.566Z,2.74
2023-01-23T17:44:18.462Z,3.21
2023-01-23T17:49:25.577Z,2.98
2023-01-23T17:54:23.405Z,2.95
2023-01-23T17:59:21.440Z,2.90
2023-01-23T18:04:19.882Z,2.92
2023-01-23T18:09:20.264Z,2.87
2023-01-23T18:14:32.468Z,2.80
2023-01-23T18:19:30.608Z,2.95
2023-01-23T18:24:31.163Z,3.23
2023-01-23T18:29:44.297Z,3.56
2023-01-23T18:35:01.401Z,3.06
2023-01-23T18:40:49.885Z,3.13
2023-01-23T18:45:58.027Z,3.11
2023-01-23T18:51:02.725Z,3.24
2023-01-23T18:56:09.614Z,3.30
2023-01-23T19:01:15.336Z,3.42
2023-01-23T19:06:19.898Z,3.67
2023-01-23T19:11:24.896Z,3.60
2023-01-23T19:16:30.065Z,3.44
2023-01-23T19:21:28.556Z,3.39
2023-01-23T19:26:27.894Z,2.98
2023-01-23T19:31:28.102Z,2.95
2023-01-23T19:36:28.352Z,2.80
2023-01-23T19:41:28.187Z,2.97
2023-01-23T19:46:30.636Z,3.04
2023-01-23T19:51:30.272Z,2.64
2023-01-23T19:56:28.429Z,2.85
2023-01-23T20:01:31.690Z,2.76
2023-01-23T20:06:30.128Z,2.49
2023-01-23T20:11:28.025Z,2.80
2023-01-23T20:16:29.103Z,2.78
2023-01-23T20:21:27.580Z,2.92
2023-01-23T20:26:25.505Z,2.56
2023-01-23T20:31:23.659Z,2.47
2023-01-23T20:36:22.999Z,2.81
2023-01-23T20:41:21.677Z,2.71
2023-01-23T20:46:20.066Z,2.83
2023-01-23T20:51:18.530Z,2.75
2023-01-23T20:56:18.809Z,2.32
2023-01-23T21:01:17.206Z,2.54
2023-01-23T21:06:15.941Z,2.28
2023-01-23T21:11:14.807Z,2.54
2023-01-23T21:16:14.986Z,2.52
2023-01-23T21:21:13.465Z,2.59
2023-01-23T21:26:11.311Z,2.91
2023-01-23T21:31:10.704Z,2.61
2023-01-23T21:36:10.828Z,2.60
2023-01-23T21:41:08.631Z,2.80
2023-01-23T21:46:07.400Z,2.50
2023-01-23T21:51:06.163Z,2.64
2023-01-23T21:56:06.066Z,2.61
2023-01-23T22:01:23.092Z,2.82
2023-01-23T22:06:20.919Z,2.74
2023-01-23T22:11:20.320Z,2.54
2023-01-23T22:16:18.974Z,2.75
2023-01-23T22:21:16.877Z,2.59
2023-01-23T22:26:14.713Z,2.61
2023-01-23T22:31:14.897Z,2.49
2023-01-23T22:36:14.435Z,2.61
2023-01-23T22:41:13.964Z,2.46
2023-01-23T22:46:13.289Z,2.68
2023-01-23T22:51:15.984Z,2.60
2023-01-23T22:56:14.203Z,2.61
2023-01-23T23:01:12.334Z,2.91
2023-01-23T23:06:12.048Z,2.68
2023-01-23T23:11:13.289Z,3.03
2023-01-23T23:16:12.980Z,2.86
2023-01-23T23:21:11.786Z,2.80
2023-01-23T23:26:12.047Z,3.03
2023-01-23T23:31:10.240Z,3.02
2023-01-23T23:36:08.468Z,3.05
2023-01-23T23:41:07.370Z,2.77
2023-01-23T23:46:07.590Z,2.68
2023-01-23T23:51:07.190Z,2.88
2023-01-23T23:56:05.835Z,2.92
